sensor_id;sensor_type;location;lat;lon;timestamp;P1;durP1;ratioP1;P2;durP2;ratioP2
17032;SDS011;63208;52.178;21.016;2023-10-09T00:01:02;5.60;;;2.70;;
17032;SDS011;63208;52.178;21.016;2023-10-09T00:03:34;6.67;;;2.70;;
17032;SDS011;63208;52.178;21.016;2023-10-09T00:06:03;6.17;;;2.70;;
17032;SDS011;63208;52.178;21.016;2023-10-09T00:08:31;5.83;;;2.97;;
17032;SDS011;63208;52.178;21.016;2023-10-09T00:11:00;4.03;;;2.33;;
17032;SDS011;63208;52.178;21.016;2023-10-09T00:13:41;4.33;;;2.57;;
17032;SDS011;63208;52.178;21.016;2023-10-09T00:16:17;4.40;;;2.70;;
17032;SDS011;63208;52.178;21.016;2023-10-09T00:18:57;6.63;;;3.23;;
17032;SDS011;63208;52.178;21.016;2023-10-09T00:21:38;3.57;;;2.50;;
17032;SDS011;63208;52.178;21.016;2023-10-09T00:24:07;4.60;;;2.67;;
17032;SDS011;63208;52.178;21.016;2023-10-09T00:26:38;4.17;;;2.33;;
17032;SDS011;63208;52.178;21.016;2023-10-09T00:29:10;6.00;;;2.80;;
17032;SDS011;63208;52.178;21.016;2023-10-09T00:31:40;5.17;;;3.00;;
17032;SDS011;63208;52.178;21.016;2023-10-09T00:34:15;4.50;;;2.40;;
17032;SDS011;63208;52.178;21.016;2023-10-09T00:36:44;4.67;;;2.70;;
17032;SDS011;63208;52.178;21.016;2023-10-09T00:39:16;6.77;;;3.03;;
17032;SDS011;63208;52.178;21.016;2023-10-09T00:41:57;5.13;;;2.90;;
17032;SDS011;63208;52.178;21.016;2023-10-09T00:44:25;5.43;;;2.87;;
17032;SDS011;63208;52.178;21.016;2023-10-09T00:47:03;4.37;;;2.70;;
17032;SDS011;63208;52.178;21.016;2023-10-09T00:49:35;5.27;;;2.67;;
17032;SDS011;63208;52.178;21.016;2023-10-09T00:52:07;5.13;;;2.43;;
17032;SDS011;63208;52.178;21.016;2023-10-09T00:54:44;5.37;;;2.80;;
17032;SDS011;63208;52.178;21.016;2023-10-09T00:57:16;6.10;;;2.57;;
17032;SDS011;63208;52.178;21.016;2023-10-09T00:59:51;5.37;;;2.87;;
17032;SDS011;63208;52.178;21.016;2023-10-09T01:02:25;4.07;;;2.60;;
17032;SDS011;63208;52.178;21.016;2023-10-09T01:05:01;5.07;;;2.63;;
17032;SDS011;63208;52.178;21.016;2023-10-09T01:07:43;5.00;;;2.87;;
17032;SDS011;63208;52.178;21.016;2023-10-09T01:10:14;5.17;;;2.63;;
17032;SDS011;63208;52.178;21.016;2023-10-09T01:12:43;4.60;;;2.47;;
17032;SDS011;63208;52.178;21.016;2023-10-09T01:15:12;5.17;;;2.50;;
17032;SDS011;63208;52.178;21.016;2023-10-09T01:18:01;4.90;;;2.40;;
17032;SDS011;63208;52.178;21.016;2023-10-09T01:20:29;5.00;;;2.73;;
17032;SDS011;63208;52.178;21.016;2023-10-09T01:23:07;3.70;;;2.30;;
17032;SDS011;63208;52.178;21.016;2023-10-09T01:25:35;5.73;;;2.20;;
17032;SDS011;63208;52.178;21.016;2023-10-09T01:28:08;3.23;;;2.47;;
17032;SDS011;63208;52.178;21.016;2023-10-09T01:30:35;3.47;;;2.30;;
17032;SDS011;63208;52.178;21.016;2023-10-09T01:33:06;3.17;;;2.20;;
17032;SDS011;63208;52.178;21.016;2023-10-09T01:35:40;4.03;;;2.60;;
17032;SDS011;63208;52.178;21.016;2023-10-09T01:38:15;5.13;;;2.37;;
17032;SDS011;63208;52.178;21.016;2023-10-09T01:40:42;2.90;;;2.13;;
17032;SDS011;63208;52.178;21.016;2023-10-09T01:43:10;6.03;;;2.30;;
17032;SDS011;63208;52.178;21.016;2023-10-09T01:45:38;6.00;;;2.53;;
17032;SDS011;63208;52.178;21.016;2023-10-09T01:48:08;2.70;;;2.30;;
17032;SDS011;63208;52.178;21.016;2023-10-09T01:50:37;4.30;;;3.07;;
17032;SDS011;63208;52.178;21.016;2023-10-09T01:53:07;4.80;;;2.70;;
17032;SDS011;63208;52.178;21.016;2023-10-09T01:55:35;2.93;;;2.13;;
17032;SDS011;63208;52.178;21.016;2023-10-09T01:58:05;3.27;;;2.30;;
17032;SDS011;63208;52.178;21.016;2023-10-09T02:00:42;4.30;;;2.20;;
17032;SDS011;63208;52.178;21.016;2023-10-09T02:03:20;4.50;;;2.63;;
17032;SDS011;63208;52.178;21.016;2023-10-09T02:05:51;3.83;;;2.63;;
17032;SDS011;63208;52.178;21.016;2023-10-09T02:08:24;5.10;;;2.57;;
17032;SDS011;63208;52.178;21.016;2023-10-09T02:10:53;6.03;;;3.07;;
17032;SDS011;63208;52.178;21.016;2023-10-09T02:13:21;6.20;;;3.17;;
17032;SDS011;63208;52.178;21.016;2023-10-09T02:15:55;4.77;;;2.47;;
17032;SDS011;63208;52.178;21.016;2023-10-09T02:18:38;4.87;;;2.40;;
17032;SDS011;63208;52.178;21.016;2023-10-09T02:21:17;5.30;;;2.67;;
17032;SDS011;63208;52.178;21.016;2023-10-09T02:23:53;6.47;;;2.80;;
17032;SDS011;63208;52.178;21.016;2023-10-09T02:26:23;3.83;;;2.30;;
17032;SDS011;63208;52.178;21.016;2023-10-09T02:28:52;3.30;;;2.50;;
17032;SDS011;63208;52.178;21.016;2023-10-09T02:31:23;4.43;;;2.77;;
17032;SDS011;63208;52.178;21.016;2023-10-09T02:33:52;4.00;;;2.63;;
17032;SDS011;63208;52.178;21.016;2023-10-09T02:36:20;3.93;;;2.63;;
17032;SDS011;63208;52.178;21.016;2023-10-09T02:38:48;3.77;;;2.13;;
17032;SDS011;63208;52.178;21.016;2023-10-09T02:41:18;5.43;;;2.47;;
17032;SDS011;63208;52.178;21.016;2023-10-09T02:43:54;5.20;;;2.63;;
17032;SDS011;63208;52.178;21.016;2023-10-09T02:46:22;4.33;;;2.57;;
17032;SDS011;63208;52.178;21.016;2023-10-09T02:48:55;4.03;;;2.60;;
17032;SDS011;63208;52.178;21.016;2023-10-09T02:51:23;2.40;;;2.07;;
17032;SDS011;63208;52.178;21.016;2023-10-09T02:53:59;4.67;;;2.00;;
17032;SDS011;63208;52.178;21.016;2023-10-09T02:56:33;4.83;;;2.37;;
17032;SDS011;63208;52.178;21.016;2023-10-09T02:59:04;5.93;;;2.40;;
17032;SDS011;63208;52.178;21.016;2023-10-09T03:01:32;7.33;;;2.40;;
17032;SDS011;63208;52.178;21.016;2023-10-09T03:04:00;6.00;;;2.70;;
17032;SDS011;63208;52.178;21.016;2023-10-09T03:06:28;3.33;;;2.60;;
17032;SDS011;63208;52.178;21.016;2023-10-09T03:08:56;5.77;;;2.47;;
17032;SDS011;63208;52.178;21.016;2023-10-09T03:11:23;6.00;;;2.77;;
17032;SDS011;63208;52.178;21.016;2023-10-09T03:13:52;3.80;;;2.30;;
17032;SDS011;63208;52.178;21.016;2023-10-09T03:16:21;5.17;;;2.70;;
17032;SDS011;63208;52.178;21.016;2023-10-09T03:18:49;4.13;;;2.50;;
17032;SDS011;63208;52.178;21.016;2023-10-09T03:21:17;4.50;;;2.43;;
17032;SDS011;63208;52.178;21.016;2023-10-09T03:23:45;4.07;;;2.23;;
17032;SDS011;63208;52.178;21.016;2023-10-09T03:26:14;5.10;;;2.57;;
17032;SDS011;63208;52.178;21.016;2023-10-09T03:28:42;4.13;;;2.70;;
17032;SDS011;63208;52.178;21.016;2023-10-09T03:31:12;3.93;;;2.60;;
17032;SDS011;63208;52.178;21.016;2023-10-09T03:33:41;3.53;;;2.43;;
17032;SDS011;63208;52.178;21.016;2023-10-09T03:36:08;3.07;;;2.47;;
17032;SDS011;63208;52.178;21.016;2023-10-09T03:38:35;7.43;;;2.77;;
17032;SDS011;63208;52.178;21.016;2023-10-09T03:41:03;2.20;;;2.00;;
17032;SDS011;63208;52.178;21.016;2023-10-09T03:43:31;5.77;;;2.70;;
17032;SDS011;63208;52.178;21.016;2023-10-09T03:46:02;3.87;;;2.20;;
17032;SDS011;63208;52.178;21.016;2023-10-09T03:48:30;4.03;;;2.60;;
17032;SDS011;63208;52.178;21.016;2023-10-09T03:51:00;4.43;;;2.73;;
17032;SDS011;63208;52.178;21.016;2023-10-09T03:53:34;3.40;;;2.43;;
17032;SDS011;63208;52.178;21.016;2023-10-09T03:56:03;3.70;;;2.40;;
17032;SDS011;63208;52.178;21.016;2023-10-09T03:58:36;4.17;;;2.83;;
17032;SDS011;63208;52.178;21.016;2023-10-09T04:01:06;6.73;;;3.00;;
17032;SDS011;63208;52.178;21.016;2023-10-09T04:03:35;4.67;;;3.00;;
17032;SDS011;63208;52.178;21.016;2023-10-09T04:06:03;3.63;;;2.80;;
17032;SDS011;63208;52.178;21.016;2023-10-09T04:08:33;3.27;;;2.97;;
17032;SDS011;63208;52.178;21.016;2023-10-09T04:11:00;4.07;;;2.33;;
17032;SDS011;63208;52.178;21.016;2023-10-09T04:13:30;3.77;;;2.80;;
17032;SDS011;63208;52.178;21.016;2023-10-09T04:16:01;4.90;;;3.00;;
17032;SDS011;63208;52.178;21.016;2023-10-09T04:18:49;4.73;;;2.47;;
17032;SDS011;63208;52.178;21.016;2023-10-09T04:21:18;3.90;;;3.03;;
17032;SDS011;63208;52.178;21.016;2023-10-09T04:23:44;5.93;;;2.80;;
17032;SDS011;63208;52.178;21.016;2023-10-09T04:26:46;6.80;;;3.13;;
17032;SDS011;63208;52.178;21.016;2023-10-09T04:29:14;3.70;;;2.50;;
17032;SDS011;63208;52.178;21.016;2023-10-09T04:31:48;5.20;;;3.10;;
17032;SDS011;63208;52.178;21.016;2023-10-09T04:34:16;4.60;;;2.70;;
17032;SDS011;63208;52.178;21.016;2023-10-09T04:37:01;3.87;;;2.70;;
17032;SDS011;63208;52.178;21.016;2023-10-09T04:39:45;4.93;;;2.90;;
17032;SDS011;63208;52.178;21.016;2023-10-09T04:42:15;3.40;;;2.67;;
17032;SDS011;63208;52.178;21.016;2023-10-09T04:45:01;4.93;;;2.93;;
17032;SDS011;63208;52.178;21.016;2023-10-09T04:47:58;7.73;;;2.70;;
17032;SDS011;63208;52.178;21.016;2023-10-09T04:50:31;4.80;;;2.63;;
17032;SDS011;63208;52.178;21.016;2023-10-09T04:53:22;5.13;;;3.00;;
17032;SDS011;63208;52.178;21.016;2023-10-09T04:55:49;5.97;;;3.03;;
17032;SDS011;63208;52.178;21.016;2023-10-09T04:58:29;5.73;;;3.00;;
17032;SDS011;63208;52.178;21.016;2023-10-09T05:01:04;4.20;;;2.73;;
17032;SDS011;63208;52.178;21.016;2023-10-09T05:03:41;5.07;;;2.93;;
17032;SDS011;63208;52.178;21.016;2023-10-09T05:06:11;5.00;;;2.90;;
17032;SDS011;63208;52.178;21.016;2023-10-09T05:09:08;6.97;;;2.80;;
17032;SDS011;63208;52.178;21.016;2023-10-09T05:11:38;6.87;;;3.23;;
17032;SDS011;63208;52.178;21.016;2023-10-09T05:14:19;4.00;;;3.00;;
17032;SDS011;63208;52.178;21.016;2023-10-09T05:17:03;5.03;;;2.40;;
17032;SDS011;63208;52.178;21.016;2023-10-09T05:19:31;4.77;;;2.50;;
17032;SDS011;63208;52.178;21.016;2023-10-09T05:22:19;6.33;;;2.73;;
17032;SDS011;63208;52.178;21.016;2023-10-09T05:25:03;8.33;;;3.17;;
17032;SDS011;63208;52.178;21.016;2023-10-09T05:27:41;5.53;;;3.00;;
17032;SDS011;63208;52.178;21.016;2023-10-09T05:30:15;3.80;;;2.33;;
17032;SDS011;63208;52.178;21.016;2023-10-09T05:32:52;5.50;;;2.93;;
17032;SDS011;63208;52.178;21.016;2023-10-09T05:35:34;6.07;;;2.47;;
17032;SDS011;63208;52.178;21.016;2023-10-09T05:41:47;3.70;;;2.40;;
17032;SDS011;63208;52.178;21.016;2023-10-09T05:44:24;4.60;;;2.43;;
17032;SDS011;63208;52.178;21.016;2023-10-09T05:47:09;2.70;;;2.17;;
17032;SDS011;63208;52.178;21.016;2023-10-09T05:49:53;4.20;;;2.30;;
17032;SDS011;63208;52.178;21.016;2023-10-09T05:52:27;4.40;;;2.47;;
17032;SDS011;63208;52.178;21.016;2023-10-09T05:55:12;4.13;;;2.77;;
17032;SDS011;63208;52.178;21.016;2023-10-09T05:57:58;7.00;;;2.40;;
17032;SDS011;63208;52.178;21.016;2023-10-09T06:00:42;4.83;;;2.80;;
17032;SDS011;63208;52.178;21.016;2023-10-09T06:03:26;3.83;;;2.63;;
17032;SDS011;63208;52.178;21.016;2023-10-09T06:06:13;4.47;;;2.87;;
17032;SDS011;63208;52.178;21.016;2023-10-09T06:08:57;6.90;;;2.97;;
17032;SDS011;63208;52.178;21.016;2023-10-09T06:12:00;4.73;;;2.83;;
17032;SDS011;63208;52.178;21.016;2023-10-09T06:14:46;3.80;;;2.70;;
17032;SDS011;63208;52.178;21.016;2023-10-09T06:17:22;6.13;;;3.00;;
17032;SDS011;63208;52.178;21.016;2023-10-09T06:19:49;4.83;;;2.57;;
17032;SDS011;63208;52.178;21.016;2023-10-09T06:22:23;3.63;;;2.83;;
17032;SDS011;63208;52.178;21.016;2023-10-09T06:25:08;4.70;;;3.00;;
17032;SDS011;63208;52.178;21.016;2023-10-09T06:27:36;3.27;;;2.60;;
17032;SDS011;63208;52.178;21.016;2023-10-09T06:30:22;5.37;;;2.80;;
17032;SDS011;63208;52.178;21.016;2023-10-09T06:32:53;3.70;;;2.77;;
17032;SDS011;63208;52.178;21.016;2023-10-09T06:35:44;3.30;;;2.70;;
17032;SDS011;63208;52.178;21.016;2023-10-09T06:38:18;6.13;;;2.80;;
17032;SDS011;63208;52.178;21.016;2023-10-09T06:40:48;3.93;;;2.63;;
17032;SDS011;63208;52.178;21.016;2023-10-09T06:43:42;3.60;;;2.90;;
17032;SDS011;63208;52.178;21.016;2023-10-09T06:46:17;5.33;;;2.80;;
17032;SDS011;63208;52.178;21.016;2023-10-09T06:48:57;4.50;;;2.87;;
17032;SDS011;63208;52.178;21.016;2023-10-09T06:51:25;5.30;;;3.03;;
17032;SDS011;63208;52.178;21.016;2023-10-09T06:54:06;7.03;;;3.03;;
17032;SDS011;63208;52.178;21.016;2023-10-09T06:56:34;4.30;;;2.90;;
17032;SDS011;63208;52.178;21.016;2023-10-09T06:59:30;4.00;;;2.90;;
17032;SDS011;63208;52.178;21.016;2023-10-09T07:02:29;6.07;;;3.60;;
17032;SDS011;63208;52.178;21.016;2023-10-09T07:04:56;5.50;;;2.80;;
17032;SDS011;63208;52.178;21.016;2023-10-09T07:07:36;5.03;;;3.00;;
17032;SDS011;63208;52.178;21.016;2023-10-09T07:10:15;3.97;;;2.80;;
17032;SDS011;63208;52.178;21.016;2023-10-09T07:12:58;4.37;;;2.50;;
17032;SDS011;63208;52.178;21.016;2023-10-09T07:15:25;5.70;;;2.60;;
17032;SDS011;63208;52.178;21.016;2023-10-09T07:18:10;5.97;;;2.20;;
17032;SDS011;63208;52.178;21.016;2023-10-09T07:20:48;4.63;;;2.57;;
17032;SDS011;63208;52.178;21.016;2023-10-09T07:23:26;4.90;;;2.50;;
17032;SDS011;63208;52.178;21.016;2023-10-09T07:26:01;4.23;;;2.73;;
17032;SDS011;63208;52.178;21.016;2023-10-09T07:28:43;7.63;;;2.73;;
17032;SDS011;63208;52.178;21.016;2023-10-09T07:31:19;5.93;;;2.80;;
17032;SDS011;63208;52.178;21.016;2023-10-09T07:34:05;5.00;;;2.37;;
17032;SDS011;63208;52.178;21.016;2023-10-09T07:36:53;3.67;;;2.20;;
17032;SDS011;63208;52.178;21.016;2023-10-09T07:39:21;4.73;;;2.30;;
17032;SDS011;63208;52.178;21.016;2023-10-09T07:41:48;4.73;;;2.50;;
17032;SDS011;63208;52.178;21.016;2023-10-09T07:44:40;4.70;;;3.00;;
17032;SDS011;63208;52.178;21.016;2023-10-09T07:47:18;4.87;;;2.70;;
17032;SDS011;63208;52.178;21.016;2023-10-09T07:49:49;4.40;;;2.63;;
17032;SDS011;63208;52.178;21.016;2023-10-09T07:52:20;7.27;;;2.80;;
17032;SDS011;63208;52.178;21.016;2023-10-09T07:54:51;4.53;;;2.57;;
17032;SDS011;63208;52.178;21.016;2023-10-09T07:57:26;7.60;;;2.90;;
17032;SDS011;63208;52.178;21.016;2023-10-09T07:59:54;4.77;;;2.80;;
17032;SDS011;63208;52.178;21.016;2023-10-09T08:02:26;4.53;;;2.53;;
17032;SDS011;63208;52.178;21.016;2023-10-09T08:04:59;5.17;;;2.70;;
17032;SDS011;63208;52.178;21.016;2023-10-09T08:07:43;4.50;;;3.00;;
17032;SDS011;63208;52.178;21.016;2023-10-09T08:10:20;4.93;;;2.40;;
17032;SDS011;63208;52.178;21.016;2023-10-09T08:13:04;4.33;;;2.70;;
17032;SDS011;63208;52.178;21.016;2023-10-09T08:15:58;4.23;;;2.37;;
17032;SDS011;63208;52.178;21.016;2023-10-09T08:18:28;3.73;;;2.27;;
17032;SDS011;63208;52.178;21.016;2023-10-09T08:20:56;7.07;;;2.50;;
17032;SDS011;63208;52.178;21.016;2023-10-09T08:23:41;4.20;;;2.37;;
17032;SDS011;63208;52.178;21.016;2023-10-09T08:26:18;4.43;;;2.40;;
17032;SDS011;63208;52.178;21.016;2023-10-09T08:28:54;3.33;;;2.47;;
17032;SDS011;63208;52.178;21.016;2023-10-09T08:31:42;3.67;;;2.50;;
17032;SDS011;63208;52.178;21.016;2023-10-09T08:34:11;3.70;;;2.57;;
17032;SDS011;63208;52.178;21.016;2023-10-09T08:36:49;4.70;;;2.27;;
17032;SDS011;63208;52.178;21.016;2023-10-09T08:39:17;2.83;;;2.37;;
17032;SDS011;63208;52.178;21.016;2023-10-09T08:41:50;4.70;;;2.37;;
17032;SDS011;63208;52.178;21.016;2023-10-09T08:44:18;3.83;;;2.23;;
17032;SDS011;63208;52.178;21.016;2023-10-09T08:46:51;3.83;;;2.43;;
17032;SDS011;63208;52.178;21.016;2023-10-09T08:49:20;3.43;;;2.23;;
17032;SDS011;63208;52.178;21.016;2023-10-09T08:51:47;3.77;;;2.73;;
17032;SDS011;63208;52.178;21.016;2023-10-09T08:54:14;3.93;;;2.07;;
17032;SDS011;63208;52.178;21.016;2023-10-09T08:56:42;3.77;;;2.47;;
17032;SDS011;63208;52.178;21.016;2023-10-09T08:59:14;5.40;;;2.60;;
17032;SDS011;63208;52.178;21.016;2023-10-09T09:01:43;4.27;;;2.43;;
17032;SDS011;63208;52.178;21.016;2023-10-09T09:07:07;3.20;;;2.40;;
17032;SDS011;63208;52.178;21.016;2023-10-09T09:09:54;3.77;;;2.20;;
17032;SDS011;63208;52.178;21.016;2023-10-09T09:12:23;3.67;;;1.83;;
17032;SDS011;63208;52.178;21.016;2023-10-09T09:14:50;5.07;;;2.33;;
17032;SDS011;63208;52.178;21.016;2023-10-09T09:17:21;3.73;;;2.30;;
17032;SDS011;63208;52.178;21.016;2023-10-09T09:19:57;2.50;;;1.70;;
17032;SDS011;63208;52.178;21.016;2023-10-09T09:22:23;2.87;;;1.73;;
17032;SDS011;63208;52.178;21.016;2023-10-09T09:24:56;3.13;;;1.80;;
17032;SDS011;63208;52.178;21.016;2023-10-09T09:30:21;2.37;;;1.90;;
17032;SDS011;63208;52.178;21.016;2023-10-09T09:32:50;3.00;;;1.97;;
17032;SDS011;63208;52.178;21.016;2023-10-09T09:35:40;2.40;;;1.80;;
17032;SDS011;63208;52.178;21.016;2023-10-09T09:38:23;5.47;;;1.90;;
17032;SDS011;63208;52.178;21.016;2023-10-09T09:40:53;4.93;;;2.00;;
17032;SDS011;63208;52.178;21.016;2023-10-09T09:43:22;3.43;;;2.00;;
17032;SDS011;63208;52.178;21.016;2023-10-09T09:45:50;2.67;;;1.77;;
17032;SDS011;63208;52.178;21.016;2023-10-09T09:48:21;2.30;;;2.10;;
17032;SDS011;63208;52.178;21.016;2023-10-09T09:50:53;2.77;;;1.50;;
17032;SDS011;63208;52.178;21.016;2023-10-09T09:53:20;3.47;;;1.80;;
17032;SDS011;63208;52.178;21.016;2023-10-09T09:55:49;3.60;;;1.57;;
17032;SDS011;63208;52.178;21.016;2023-10-09T09:58:22;2.17;;;1.50;;
17032;SDS011;63208;52.178;21.016;2023-10-09T10:00:53;2.67;;;2.07;;
17032;SDS011;63208;52.178;21.016;2023-10-09T10:03:27;2.77;;;1.80;;
17032;SDS011;63208;52.178;21.016;2023-10-09T10:05:59;2.73;;;1.90;;
17032;SDS011;63208;52.178;21.016;2023-10-09T10:08:30;1.63;;;1.53;;
17032;SDS011;63208;52.178;21.016;2023-10-09T10:10:57;2.07;;;1.70;;
17032;SDS011;63208;52.178;21.016;2023-10-09T10:16:26;3.67;;;1.70;;
17032;SDS011;63208;52.178;21.016;2023-10-09T10:19:00;2.07;;;1.40;;
17032;SDS011;63208;52.178;21.016;2023-10-09T10:21:47;2.53;;;1.40;;
17032;SDS011;63208;52.178;21.016;2023-10-09T10:27:20;1.70;;;1.30;;
17032;SDS011;63208;52.178;21.016;2023-10-09T10:32:58;1.87;;;1.50;;
17032;SDS011;63208;52.178;21.016;2023-10-09T10:35:34;2.10;;;1.40;;
17032;SDS011;63208;52.178;21.016;2023-10-09T10:38:23;3.33;;;1.73;;
17032;SDS011;63208;52.178;21.016;2023-10-09T10:41:07;2.27;;;1.47;;
17032;SDS011;63208;52.178;21.016;2023-10-09T10:43:36;2.73;;;1.80;;
17032;SDS011;63208;52.178;21.016;2023-10-09T10:46:20;2.93;;;1.40;;
17032;SDS011;63208;52.178;21.016;2023-10-09T10:48:59;1.73;;;1.50;;
17032;SDS011;63208;52.178;21.016;2023-10-09T10:51:39;2.97;;;1.33;;
17032;SDS011;63208;52.178;21.016;2023-10-09T10:54:08;3.73;;;1.50;;
17032;SDS011;63208;52.178;21.016;2023-10-09T10:56:52;0.90;;;0.90;;
17032;SDS011;63208;52.178;21.016;2023-10-09T10:59:22;1.93;;;1.10;;
17032;SDS011;63208;52.178;21.016;2023-10-09T11:04:24;3.30;;;1.30;;
17032;SDS011;63208;52.178;21.016;2023-10-09T11:07:04;2.30;;;1.47;;
17032;SDS011;63208;52.178;21.016;2023-10-09T11:09:43;1.73;;;1.30;;
17032;SDS011;63208;52.178;21.016;2023-10-09T11:12:25;2.10;;;1.60;;
17032;SDS011;63208;52.178;21.016;2023-10-09T11:15:03;2.20;;;1.53;;
17032;SDS011;63208;52.178;21.016;2023-10-09T11:17:57;2.87;;;1.30;;
17032;SDS011;63208;52.178;21.016;2023-10-09T11:20:30;2.30;;;1.30;;
17032;SDS011;63208;52.178;21.016;2023-10-09T11:22:58;2.60;;;1.50;;
17032;SDS011;63208;52.178;21.016;2023-10-09T11:25:42;2.07;;;1.37;;
17032;SDS011;63208;52.178;21.016;2023-10-09T11:28:19;4.03;;;1.60;;
17032;SDS011;63208;52.178;21.016;2023-10-09T11:31:08;3.63;;;1.50;;
17032;SDS011;63208;52.178;21.016;2023-10-09T11:33:45;5.37;;;1.60;;
17032;SDS011;63208;52.178;21.016;2023-10-09T11:36:13;2.50;;;1.83;;
17032;SDS011;63208;52.178;21.016;2023-10-09T11:38:39;2.63;;;1.70;;
17032;SDS011;63208;52.178;21.016;2023-10-09T11:41:14;4.50;;;1.97;;
17032;SDS011;63208;52.178;21.016;2023-10-09T11:43:45;3.23;;;2.30;;
17032;SDS011;63208;52.178;21.016;2023-10-09T11:46:17;3.50;;;2.20;;
17032;SDS011;63208;52.178;21.016;2023-10-09T11:49:04;3.07;;;1.90;;
17032;SDS011;63208;52.178;21.016;2023-10-09T11:52:04;2.33;;;1.73;;
17032;SDS011;63208;52.178;21.016;2023-10-09T11:54:49;2.00;;;1.70;;
17032;SDS011;63208;52.178;21.016;2023-10-09T11:57:18;3.17;;;2.03;;
17032;SDS011;63208;52.178;21.016;2023-10-09T11:59:53;2.13;;;1.93;;
17032;SDS011;63208;52.178;21.016;2023-10-09T12:02:21;2.00;;;1.80;;
17032;SDS011;63208;52.178;21.016;2023-10-09T12:04:47;3.07;;;2.00;;
17032;SDS011;63208;52.178;21.016;2023-10-09T12:07:14;2.20;;;2.00;;
17032;SDS011;63208;52.178;21.016;2023-10-09T12:09:41;2.10;;;1.90;;
17032;SDS011;63208;52.178;21.016;2023-10-09T12:12:08;3.90;;;2.30;;
17032;SDS011;63208;52.178;21.016;2023-10-09T12:14:37;3.97;;;1.97;;
17032;SDS011;63208;52.178;21.016;2023-10-09T12:17:04;3.13;;;2.30;;
17032;SDS011;63208;52.178;21.016;2023-10-09T12:19:32;3.57;;;2.57;;
17032;SDS011;63208;52.178;21.016;2023-10-09T12:21:59;4.50;;;2.47;;
17032;SDS011;63208;52.178;21.016;2023-10-09T12:24:26;4.20;;;2.97;;
17032;SDS011;63208;52.178;21.016;2023-10-09T12:26:55;3.57;;;2.57;;
17032;SDS011;63208;52.178;21.016;2023-10-09T12:29:22;5.10;;;2.43;;
17032;SDS011;63208;52.178;21.016;2023-10-09T12:31:53;3.80;;;2.37;;
17032;SDS011;63208;52.178;21.016;2023-10-09T12:34:23;5.00;;;3.20;;
17032;SDS011;63208;52.178;21.016;2023-10-09T12:36:52;5.33;;;2.90;;
17032;SDS011;63208;52.178;21.016;2023-10-09T12:39:19;2.63;;;2.43;;
17032;SDS011;63208;52.178;21.016;2023-10-09T12:41:47;4.60;;;2.70;;
17032;SDS011;63208;52.178;21.016;2023-10-09T12:44:18;5.67;;;3.00;;
17032;SDS011;63208;52.178;21.016;2023-10-09T12:46:45;3.07;;;2.63;;
17032;SDS011;63208;52.178;21.016;2023-10-09T12:49:19;4.50;;;2.60;;
17032;SDS011;63208;52.178;21.016;2023-10-09T12:51:50;4.07;;;2.57;;
17032;SDS011;63208;52.178;21.016;2023-10-09T12:54:17;5.73;;;2.90;;
17032;SDS011;63208;52.178;21.016;2023-10-09T12:56:49;5.67;;;3.20;;
17032;SDS011;63208;52.178;21.016;2023-10-09T12:59:16;3.43;;;2.63;;
17032;SDS011;63208;52.178;21.016;2023-10-09T13:01:45;4.13;;;3.07;;
17032;SDS011;63208;52.178;21.016;2023-10-09T13:04:19;3.47;;;3.10;;
17032;SDS011;63208;52.178;21.016;2023-10-09T13:06:47;5.60;;;3.30;;
17032;SDS011;63208;52.178;21.016;2023-10-09T13:09:18;4.77;;;2.80;;
17032;SDS011;63208;52.178;21.016;2023-10-09T13:11:50;7.23;;;2.90;;
17032;SDS011;63208;52.178;21.016;2023-10-09T13:14:17;6.37;;;3.30;;
17032;SDS011;63208;52.178;21.016;2023-10-09T13:16:47;3.50;;;2.63;;
17032;SDS011;63208;52.178;21.016;2023-10-09T13:19:15;4.97;;;2.73;;
17032;SDS011;63208;52.178;21.016;2023-10-09T13:21:44;5.83;;;3.60;;
17032;SDS011;63208;52.178;21.016;2023-10-09T13:24:11;3.33;;;2.70;;
17032;SDS011;63208;52.178;21.016;2023-10-09T13:26:40;4.53;;;3.10;;
17032;SDS011;63208;52.178;21.016;2023-10-09T13:29:10;5.57;;;2.83;;
17032;SDS011;63208;52.178;21.016;2023-10-09T13:31:37;5.77;;;3.03;;
17032;SDS011;63208;52.178;21.016;2023-10-09T13:34:11;4.10;;;3.13;;
17032;SDS011;63208;52.178;21.016;2023-10-09T13:36:40;4.03;;;3.03;;
17032;SDS011;63208;52.178;21.016;2023-10-09T13:39:16;5.20;;;3.33;;
17032;SDS011;63208;52.178;21.016;2023-10-09T13:41:48;8.57;;;3.40;;
17032;SDS011;63208;52.178;21.016;2023-10-09T13:44:16;4.80;;;3.20;;
17032;SDS011;63208;52.178;21.016;2023-10-09T13:46:42;4.43;;;3.10;;
17032;SDS011;63208;52.178;21.016;2023-10-09T13:49:09;4.10;;;3.13;;
17032;SDS011;63208;52.178;21.016;2023-10-09T13:51:39;4.50;;;2.53;;
17032;SDS011;63208;52.178;21.016;2023-10-09T13:54:09;4.37;;;3.10;;
17032;SDS011;63208;52.178;21.016;2023-10-09T13:56:44;4.10;;;2.87;;
17032;SDS011;63208;52.178;21.016;2023-10-09T13:59:11;4.70;;;3.07;;
17032;SDS011;63208;52.178;21.016;2023-10-09T14:01:38;4.70;;;2.90;;
17032;SDS011;63208;52.178;21.016;2023-10-09T14:04:12;5.33;;;2.87;;
17032;SDS011;63208;52.178;21.016;2023-10-09T14:06:43;5.33;;;3.40;;
17032;SDS011;63208;52.178;21.016;2023-10-09T14:09:11;4.67;;;3.27;;
17032;SDS011;63208;52.178;21.016;2023-10-09T14:11:54;7.20;;;3.30;;
17032;SDS011;63208;52.178;21.016;2023-10-09T14:14:31;5.23;;;3.37;;
17032;SDS011;63208;52.178;21.016;2023-10-09T14:17:03;4.63;;;3.10;;
17032;SDS011;63208;52.178;21.016;2023-10-09T14:19:36;6.27;;;3.23;;
17032;SDS011;63208;52.178;21.016;2023-10-09T14:22:04;4.77;;;3.40;;
17032;SDS011;63208;52.178;21.016;2023-10-09T14:24:31;4.40;;;3.30;;
17032;SDS011;63208;52.178;21.016;2023-10-09T14:27:01;3.37;;;2.63;;
17032;SDS011;63208;52.178;21.016;2023-10-09T14:29:29;4.43;;;2.73;;
17032;SDS011;63208;52.178;21.016;2023-10-09T14:31:57;5.37;;;2.70;;
17032;SDS011;63208;52.178;21.016;2023-10-09T14:34:27;5.43;;;2.80;;
17032;SDS011;63208;52.178;21.016;2023-10-09T14:36:58;3.30;;;2.90;;
17032;SDS011;63208;52.178;21.016;2023-10-09T14:39:26;3.70;;;2.87;;
17032;SDS011;63208;52.178;21.016;2023-10-09T14:41:54;7.73;;;3.30;;
17032;SDS011;63208;52.178;21.016;2023-10-09T14:44:23;7.20;;;2.83;;
17032;SDS011;63208;52.178;21.016;2023-10-09T14:46:53;5.53;;;3.50;;
17032;SDS011;63208;52.178;21.016;2023-10-09T14:49:20;6.50;;;3.17;;
17032;SDS011;63208;52.178;21.016;2023-10-09T14:51:49;4.43;;;3.13;;
17032;SDS011;63208;52.178;21.016;2023-10-09T14:54:16;5.77;;;3.50;;
17032;SDS011;63208;52.178;21.016;2023-10-09T14:56:43;5.80;;;3.17;;
17032;SDS011;63208;52.178;21.016;2023-10-09T14:59:11;5.57;;;3.30;;
17032;SDS011;63208;52.178;21.016;2023-10-09T15:01:39;4.20;;;3.70;;
17032;SDS011;63208;52.178;21.016;2023-10-09T15:04:06;6.37;;;3.43;;
17032;SDS011;63208;52.178;21.016;2023-10-09T15:06:39;5.57;;;3.77;;
17032;SDS011;63208;52.178;21.016;2023-10-09T15:09:06;6.67;;;3.43;;
17032;SDS011;63208;52.178;21.016;2023-10-09T15:11:46;6.47;;;3.27;;
17032;SDS011;63208;52.178;21.016;2023-10-09T15:14:14;5.17;;;3.60;;
17032;SDS011;63208;52.178;21.016;2023-10-09T15:16:42;7.43;;;3.60;;
17032;SDS011;63208;52.178;21.016;2023-10-09T15:19:09;6.93;;;3.10;;
17032;SDS011;63208;52.178;21.016;2023-10-09T15:21:36;6.23;;;3.20;;
17032;SDS011;63208;52.178;21.016;2023-10-09T15:24:09;4.73;;;3.30;;
17032;SDS011;63208;52.178;21.016;2023-10-09T15:26:37;5.93;;;3.07;;
17032;SDS011;63208;52.178;21.016;2023-10-09T15:29:05;6.07;;;3.83;;
17032;SDS011;63208;52.178;21.016;2023-10-09T15:31:34;7.93;;;3.60;;